sensor_id;sensor_type;location;lat;lon;timestamp;pressure;altitude;pressure_sealevel;temperature;humidity
45275;BME280;31019;43.780;25.948;2022-12-18T00:00:49;101958.34;;;6.29;100.00
45275;BME280;31019;43.780;25.948;2022-12-18T00:03:16;101951.59;;;6.27;100.00
45275;BME280;31019;43.780;25.948;2022-12-18T00:05:47;101956.06;;;6.44;100.00
45275;BME280;31019;43.780;25.948;2022-12-18T00:08:14;101961.66;;;5.57;100.00
45275;BME280;31019;43.780;25.948;2022-12-18T00:10:41;101954.47;;;5.59;100.00
45275;BME280;31019;43.780;25.948;2022-12-18T00:13:07;101963.63;;;5.55;100.00
45275;BME280;31019;43.780;25.948;2022-12-18T00:15:36;101955.75;;;5.45;100.00
45275;BME280;31019;43.780;25.948;2022-12-18T00:18:03;101974.72;;;5.58;100.00
45275;BME280;31019;43.780;25.948;2022-12-18T00:20:30;101976.94;;;5.53;100.00
45275;BME280;31019;43.780;25.948;2022-12-18T00:22:57;101976.19;;;5.80;100.00
45275;BME280;31019;43.780;25.948;2022-12-18T00:25:24;101974.19;;;5.55;100.00
45275;BME280;31019;43.780;25.948;2022-12-18T00:27:50;101972.91;;;5.59;100.00
45275;BME280;31019;43.780;25.948;2022-12-18T00:30:18;101988.31;;;5.54;100.00
45275;BME280;31019;43.780;25.948;2022-12-18T00:32:46;101994.03;;;5.39;100.00
45275;BME280;31019;43.780;25.948;2022-12-18T00:35:12;102001.25;;;5.27;100.00
45275;BME280;31019;43.780;25.948;2022-12-18T00:37:39;102014.16;;;5.31;100.00
45275;BME280;31019;43.780;25.948;2022-12-18T00:40:07;102007.75;;;5.43;100.00
45275;BME280;31019;43.780;25.948;2022-12-18T00:42:34;102014.28;;;5.19;100.00
45275;BME280;31019;43.780;25.948;2022-12-18T00:45:18;102017.47;;;5.13;100.00
45275;BME280;31019;43.780;25.948;2022-12-18T00:47:46;102021.09;;;5.12;100.00
45275;BME280;31019;43.780;25.948;2022-12-18T00:50:13;102028.56;;;5.07;100.00
45275;BME280;31019;43.780;25.948;2022-12-18T00:52:40;102026.91;;;5.16;100.00
45275;BME280;31019;43.780;25.948;2022-12-18T00:55:07;102032.56;;;5.11;100.00
45275;BME280;31019;43.780;25.948;2022-12-18T00:57:34;102025.53;;;5.12;100.00
45275;BME280;31019;43.780;25.948;2022-12-18T01:00:01;102028.59;;;5.26;100.00
45275;BME280;31019;43.780;25.948;2022-12-18T01:02:42;102029.13;;;5.30;100.00
45275;BME280;31019;43.780;25.948;2022-12-18T01:05:12;102032.72;;;5.29;100.00
45275;BME280;31019;43.780;25.948;2022-12-18T01:07:39;102026.06;;;4.96;100.00
45275;BME280;31019;43.780;25.948;2022-12-18T01:10:08;102019.00;;;4.96;100.00
45275;BME280;31019;43.780;25.948;2022-12-18T01:12:36;102028.84;;;4.94;100.00
45275;BME280;31019;43.780;25.948;2022-12-18T01:15:04;102043.53;;;5.16;100.00
45275;BME280;31019;43.780;25.948;2022-12-18T01:17:31;102034.38;;;5.01;100.00
45275;BME280;31019;43.780;25.948;2022-12-18T01:19:58;102038.22;;;4.77;100.00
45275;BME280;31019;43.780;25.948;2022-12-18T01:22:26;102047.44;;;5.22;100.00
45275;BME280;31019;43.780;25.948;2022-12-18T01:24:53;102049.47;;;4.79;100.00
45275;BME280;31019;43.780;25.948;2022-12-18T01:27:20;102037.81;;;4.72;100.00
45275;BME280;31019;43.780;25.948;2022-12-18T01:29:47;102057.34;;;4.79;100.00
45275;BME280;31019;43.780;25.948;2022-12-18T01:32:14;102053.28;;;4.66;100.00
45275;BME280;31019;43.780;25.948;2022-12-18T01:34:40;102058.81;;;4.63;100.00
45275;BME280;31019;43.780;25.948;2022-12-18T01:37:07;102065.88;;;4.62;100.00
45275;BME280;31019;43.780;25.948;2022-12-18T01:39:37;102058.69;;;4.54;100.00
45275;BME280;31019;43.780;25.948;2022-12-18T01:42:09;102060.97;;;4.48;100.00
45275;BME280;31019;43.780;25.948;2022-12-18T01:44:59;102066.59;;;4.64;100.00
45275;BME280;31019;43.780;25.948;2022-12-18T01:47:30;102067.44;;;4.65;100.00
45275;BME280;31019;43.780;25.948;2022-12-18T01:50:00;102073.22;;;4.58;100.00
45275;BME280;31019;43.780;25.948;2022-12-18T01:52:29;102072.69;;;4.65;100.00
45275;BME280;31019;43.780;25.948;2022-12-18T01:55:00;102072.84;;;4.63;100.00
45275;BME280;31019;43.780;25.948;2022-12-18T01:57:28;102073.81;;;4.72;100.00
45275;BME280;31019;43.780;25.948;2022-12-18T01:59:59;102075.69;;;4.50;100.00
45275;BME280;31019;43.780;25.948;2022-12-18T02:02:27;102073.03;;;4.50;100.00
45275;BME280;31019;43.780;25.948;2022-12-18T02:04:54;102066.91;;;4.80;100.00
45275;BME280;31019;43.780;25.948;2022-12-18T02:07:26;102075.34;;;4.74;100.00
45275;BME280;31019;43.780;25.948;2022-12-18T02:10:02;102072.72;;;4.74;100.00
45275;BME280;31019;43.780;25.948;2022-12-18T02:12:36;102079.13;;;4.91;100.00
45275;BME280;31019;43.780;25.948;2022-12-18T02:15:13;102080.84;;;4.62;100.00
45275;BME280;31019;43.780;25.948;2022-12-18T02:17:46;102079.88;;;4.63;100.00
45275;BME280;31019;43.780;25.948;2022-12-18T02:20:18;102087.78;;;5.32;100.00
45275;BME280;31019;43.780;25.948;2022-12-18T02:22:49;102079.56;;;4.46;100.00
45275;BME280;31019;43.780;25.948;2022-12-18T02:25:33;102087.22;;;4.69;100.00
45275;BME280;31019;43.780;25.948;2022-12-18T02:28:09;102082.97;;;4.77;100.00
45275;BME280;31019;43.780;25.948;2022-12-18T02:30:37;102100.63;;;4.56;100.00
45275;BME280;31019;43.780;25.948;2022-12-18T02:33:07;102115.38;;;4.38;100.00
45275;BME280;31019;43.780;25.948;2022-12-18T02:35:36;102114.84;;;4.44;100.00
45275;BME280;31019;43.780;25.948;2022-12-18T02:38:05;102118.41;;;4.33;100.00
45275;BME280;31019;43.780;25.948;2022-12-18T02:40:32;102133.72;;;4.49;100.00
45275;BME280;31019;43.780;25.948;2022-12-18T02:43:03;102139.72;;;4.09;100.00
45275;BME280;31019;43.780;25.948;2022-12-18T02:45:34;102134.63;;;4.69;100.00
45275;BME280;31019;43.780;25.948;2022-12-18T02:48:01;102133.78;;;4.38;100.00
45275;BME280;31019;43.780;25.948;2022-12-18T02:50:34;102132.41;;;4.74;100.00
45275;BME280;31019;43.780;25.948;2022-12-18T02:53:10;102140.28;;;4.33;100.00
45275;BME280;31019;43.780;25.948;2022-12-18T02:55:52;102152.66;;;4.22;100.00
45275;BME280;31019;43.780;25.948;2022-12-18T02:58:26;102151.19;;;4.08;100.00
45275;BME280;31019;43.780;25.948;2022-12-18T03:01:02;102167.88;;;3.97;100.00
45275;BME280;31019;43.780;25.948;2022-12-18T03:03:35;102165.81;;;4.73;100.00
45275;BME280;31019;43.780;25.948;2022-12-18T03:06:06;102164.66;;;4.35;100.00
45275;BME280;31019;43.780;25.948;2022-12-18T03:08:38;102169.94;;;3.94;100.00
45275;BME280;31019;43.780;25.948;2022-12-18T03:11:09;102180.59;;;3.81;100.00
45275;BME280;31019;43.780;25.948;2022-12-18T03:13:39;102184.13;;;3.70;100.00
45275;BME280;31019;43.780;25.948;2022-12-18T03:16:12;102185.47;;;4.18;100.00
45275;BME280;31019;43.780;25.948;2022-12-18T03:18:44;102190.69;;;3.64;100.00
45275;BME280;31019;43.780;25.948;2022-12-18T03:21:13;102197.03;;;3.62;100.00
45275;BME280;31019;43.780;25.948;2022-12-18T03:23:44;102205.03;;;3.93;100.00
45275;BME280;31019;43.780;25.948;2022-12-18T03:26:14;102210.78;;;4.19;100.00
45275;BME280;31019;43.780;25.948;2022-12-18T03:28:46;102207.84;;;4.33;100.00
45275;BME280;31019;43.780;25.948;2022-12-18T03:31:16;102210.38;;;4.23;100.00
45275;BME280;31019;43.780;25.948;2022-12-18T03:33:47;102206.81;;;4.03;100.00
45275;BME280;31019;43.780;25.948;2022-12-18T03:36:17;102202.88;;;3.65;100.00
45275;BME280;31019;43.780;25.948;2022-12-18T03:38:45;102213.72;;;3.72;100.00
45275;BME280;31019;43.780;25.948;2022-12-18T03:41:18;102222.56;;;3.71;100.00
45275;BME280;31019;43.780;25.948;2022-12-18T03:43:50;102215.81;;;3.57;100.00
45275;BME280;31019;43.780;25.948;2022-12-18T03:46:26;102228.63;;;3.83;100.00
45275;BME280;31019;43.780;25.948;2022-12-18T03:48:59;102229.16;;;3.65;100.00
45275;BME280;31019;43.780;25.948;2022-12-18T03:51:32;102231.13;;;3.41;100.00
45275;BME280;31019;43.780;25.948;2022-12-18T03:54:04;102242.81;;;3.48;100.00
45275;BME280;31019;43.780;25.948;2022-12-18T03:56:34;102242.09;;;3.35;100.00
45275;BME280;31019;43.780;25.948;2022-12-18T03:59:04;102241.16;;;3.13;100.00
45275;BME280;31019;43.780;25.948;2022-12-18T04:01:35;102245.75;;;3.66;100.00
45275;BME280;31019;43.780;25.948;2022-12-18T04:04:05;102256.69;;;3.28;100.00
45275;BME280;31019;43.780;25.948;2022-12-18T04:06:35;102257.66;;;3.15;100.00
45275;BME280;31019;43.780;25.948;2022-12-18T04:09:03;102252.50;;;3.14;100.00
45275;BME280;31019;43.780;25.948;2022-12-18T04:11:30;102262.63;;;4.28;100.00
45275;BME280;31019;43.780;25.948;2022-12-18T04:13:57;102259.78;;;3.33;100.00
45275;BME280;31019;43.780;25.948;2022-12-18T04:16:25;102260.75;;;2.98;100.00
45275;BME280;31019;43.780;25.948;2022-12-18T04:21:34;102266.56;;;2.90;100.00
45275;BME280;31019;43.780;25.948;2022-12-18T04:24:01;102267.19;;;2.83;100.00
45275;BME280;31019;43.780;25.948;2022-12-18T04:26:28;102264.06;;;2.89;100.00
45275;BME280;31019;43.780;25.948;2022-12-18T04:28:54;102268.59;;;2.87;100.00
45275;BME280;31019;43.780;25.948;2022-12-18T04:31:21;102273.97;;;2.85;100.00
45275;BME280;31019;43.780;25.948;2022-12-18T04:33:48;102279.94;;;2.87;100.00
45275;BME280;31019;43.780;25.948;2022-12-18T04:36:15;102294.94;;;2.74;100.00
45275;BME280;31019;43.780;25.948;2022-12-18T04:38:44;102284.06;;;2.56;100.00
45275;BME280;31019;43.780;25.948;2022-12-18T04:41:14;102294.28;;;2.94;100.00
45275;BME280;31019;43.780;25.948;2022-12-18T04:43:40;102290.06;;;2.69;100.00
45275;BME280;31019;43.780;25.948;2022-12-18T04:46:08;102296.47;;;2.65;100.00
45275;BME280;31019;43.780;25.948;2022-12-18T04:48:35;102301.03;;;2.74;100.00
45275;BME280;31019;43.780;25.948;2022-12-18T04:51:02;102301.63;;;2.78;100.00
45275;BME280;31019;43.780;25.948;2022-12-18T04:53:29;102314.16;;;2.74;100.00
45275;BME280;31019;43.780;25.948;2022-12-18T04:56:05;102305.75;;;3.38;100.00
45275;BME280;31019;43.780;25.948;2022-12-18T04:58:32;102311.59;;;2.97;100.00
45275;BME280;31019;43.780;25.948;2022-12-18T05:01:01;102319.28;;;2.87;100.00
45275;BME280;31019;43.780;25.948;2022-12-18T05:03:28;102326.88;;;3.37;100.00
45275;BME280;31019;43.780;25.948;2022-12-18T05:05:55;102333.72;;;2.70;100.00
45275;BME280;31019;43.780;25.948;2022-12-18T05:08:22;102339.50;;;3.20;100.00
45275;BME280;31019;43.780;25.948;2022-12-18T05:10:49;102343.81;;;3.21;100.00
45275;BME280;31019;43.780;25.948;2022-12-18T05:13:17;102346.41;;;2.88;100.00
45275;BME280;31019;43.780;25.948;2022-12-18T05:15:51;102352.06;;;3.06;100.00
45275;BME280;31019;43.780;25.948;2022-12-18T05:18:18;102352.94;;;2.82;100.00
45275;BME280;31019;43.780;25.948;2022-12-18T05:20:45;102358.41;;;3.37;100.00
45275;BME280;31019;43.780;25.948;2022-12-18T05:23:11;102367.03;;;2.92;100.00
45275;BME280;31019;43.780;25.948;2022-12-18T05:25:38;102367.53;;;2.62;100.00
45275;BME280;31019;43.780;25.948;2022-12-18T05:28:05;102357.88;;;2.63;100.00
45275;BME280;31019;43.780;25.948;2022-12-18T05:30:34;102368.50;;;3.08;100.00
45275;BME280;31019;43.780;25.948;2022-12-18T05:33:00;102362.06;;;3.01;100.00
45275;BME280;31019;43.780;25.948;2022-12-18T05:35:27;102370.25;;;2.85;100.00
45275;BME280;31019;43.780;25.948;2022-12-18T05:37:54;102374.41;;;2.76;100.00
45275;BME280;31019;43.780;25.948;2022-12-18T05:40:21;102379.97;;;2.71;100.00
45275;BME280;31019;43.780;25.948;2022-12-18T05:42:47;102380.97;;;3.28;100.00
45275;BME280;31019;43.780;25.948;2022-12-18T05:45:14;102380.06;;;2.59;100.00
45275;BME280;31019;43.780;25.948;2022-12-18T05:47:43;102385.38;;;2.81;100.00
45275;BME280;31019;43.780;25.948;2022-12-18T05:50:09;102384.53;;;3.27;100.00
45275;BME280;31019;43.780;25.948;2022-12-18T05:52:36;102388.44;;;3.10;100.00
45275;BME280;31019;43.780;25.948;2022-12-18T05:55:04;102387.38;;;2.78;100.00
45275;BME280;31019;43.780;25.948;2022-12-18T05:57:30;102388.91;;;2.69;100.00
45275;BME280;31019;43.780;25.948;2022-12-18T05:59:57;102412.03;;;2.64;100.00
45275;BME280;31019;43.780;25.948;2022-12-18T06:02:24;102419.63;;;3.26;100.00
45275;BME280;31019;43.780;25.948;2022-12-18T06:04:52;102410.06;;;2.79;100.00
45275;BME280;31019;43.780;25.948;2022-12-18T06:07:19;102410.19;;;3.12;100.00
45275;BME280;31019;43.780;25.948;2022-12-18T06:10:01;102407.69;;;3.22;100.00
45275;BME280;31019;43.780;25.948;2022-12-18T06:12:28;102429.38;;;2.78;100.00
45275;BME280;31019;43.780;25.948;2022-12-18T06:14:54;102438.66;;;2.70;100.00
45275;BME280;31019;43.780;25.948;2022-12-18T06:17:21;102444.47;;;2.63;100.00
45275;BME280;31019;43.780;25.948;2022-12-18T06:19:48;102438.94;;;2.55;100.00
45275;BME280;31019;43.780;25.948;2022-12-18T06:22:15;102447.50;;;2.69;100.00
45275;BME280;31019;43.780;25.948;2022-12-18T06:24:42;102448.34;;;2.57;100.00
45275;BME280;31019;43.780;25.948;2022-12-18T06:27:10;102445.25;;;2.52;100.00
45275;BME280;31019;43.780;25.948;2022-12-18T06:29:37;102450.16;;;2.57;100.00
45275;BME280;31019;43.780;25.948;2022-12-18T06:32:04;102454.03;;;2.99;100.00
45275;BME280;31019;43.780;25.948;2022-12-18T06:34:30;102452.06;;;2.79;100.00
45275;BME280;31019;43.780;25.948;2022-12-18T06:36:58;102458.59;;;2.97;100.00
45275;BME280;31019;43.780;25.948;2022-12-18T06:39:26;102458.34;;;3.47;100.00
45275;BME280;31019;43.780;25.948;2022-12-18T06:41:53;102472.16;;;2.91;100.00
45275;BME280;31019;43.780;25.948;2022-12-18T06:44:21;102475.34;;;2.83;100.00
45275;BME280;31019;43.780;25.948;2022-12-18T06:46:48;102472.47;;;2.86;100.00
45275;BME280;31019;43.780;25.948;2022-12-18T06:49:15;102482.06;;;2.98;100.00
45275;BME280;31019;43.780;25.948;2022-12-18T06:51:42;102485.34;;;3.13;100.00
45275;BME280;31019;43.780;25.948;2022-12-18T06:54:08;102489.19;;;3.56;100.00
45275;BME280;31019;43.780;25.948;2022-12-18T06:56:35;102493.00;;;3.52;100.00
45275;BME280;31019;43.780;25.948;2022-12-18T06:59:02;102506.19;;;3.28;100.00
45275;BME280;31019;43.780;25.948;2022-12-18T07:01:30;102507.03;;;3.86;100.00
45275;BME280;31019;43.780;25.948;2022-12-18T07:03:57;102511.31;;;3.98;100.00
45275;BME280;31019;43.780;25.948;2022-12-18T07:06:25;102520.75;;;4.23;100.00
45275;BME280;31019;43.780;25.948;2022-12-18T07:08:53;102519.09;;;4.33;100.00
45275;BME280;31019;43.780;25.948;2022-12-18T07:11:20;102521.00;;;4.43;100.00
45275;BME280;31019;43.780;25.948;2022-12-18T07:13:46;102523.88;;;4.17;100.00
45275;BME280;31019;43.780;25.948;2022-12-18T07:16:14;102523.97;;;4.61;100.00
45275;BME280;31019;43.780;25.948;2022-12-18T07:18:45;102527.59;;;4.03;100.00
45275;BME280;31019;43.780;25.948;2022-12-18T07:21:14;102524.66;;;4.63;100.00
45275;BME280;31019;43.780;25.948;2022-12-18T07:23:41;102526.91;;;5.11;100.00
45275;BME280;31019;43.780;25.948;2022-12-18T07:26:09;102533.63;;;5.57;100.00
45275;BME280;31019;43.780;25.948;2022-12-18T07:28:38;102541.75;;;5.65;100.00
45275;BME280;31019;43.780;25.948;2022-12-18T07:31:08;102540.03;;;4.90;100.00
45275;BME280;31019;43.780;25.948;2022-12-18T07:33:35;102546.16;;;5.22;100.00
45275;BME280;31019;43.780;25.948;2022-12-18T07:36:05;102552.69;;;4.41;100.00
45275;BME280;31019;43.780;25.948;2022-12-18T07:38:34;102559.63;;;5.40;100.00
45275;BME280;31019;43.780;25.948;2022-12-18T07:41:01;102567.38;;;4.32;100.00
45275;BME280;31019;43.780;25.948;2022-12-18T07:43:28;102559.50;;;5.42;100.00
45275;BME280;31019;43.780;25.948;2022-12-18T07:45:55;102567.81;;;5.26;100.00
45275;BME280;31019;43.780;25.948;2022-12-18T07:48:21;102560.66;;;4.85;100.00
45275;BME280;31019;43.780;25.948;2022-12-18T07:50:48;102572.81;;;5.29;100.00
45275;BME280;31019;43.780;25.948;2022-12-18T07:53:16;102574.72;;;5.59;100.00
45275;BME280;31019;43.780;25.948;2022-12-18T07:55:43;102585.25;;;5.38;100.00
45275;BME280;31019;43.780;25.948;2022-12-18T07:58:10;102589.25;;;5.54;100.00
45275;BME280;31019;43.780;25.948;2022-12-18T08:00:37;102581.69;;;5.60;100.00
45275;BME280;31019;43.780;25.948;2022-12-18T08:03:03;102590.69;;;6.51;100.00
45275;BME280;31019;43.780;25.948;2022-12-18T08:05:30;102590.22;;;4.77;100.00
45275;BME280;31019;43.780;25.948;2022-12-18T08:07:58;102588.13;;;6.09;100.00
45275;BME280;31019;43.780;25.948;2022-12-18T08:10:26;102582.50;;;6.54;100.00
45275;BME280;31019;43.780;25.948;2022-12-18T08:12:53;102586.59;;;6.07;100.00
45275;BME280;31019;43.780;25.948;2022-12-18T08:15:19;102594.97;;;4.94;100.00
45275;BME280;31019;43.780;25.948;2022-12-18T08:17:46;102599.47;;;4.49;100.00
45275;BME280;31019;43.780;25.948;2022-12-18T08:20:13;102592.41;;;4.27;100.00
45275;BME280;31019;43.780;25.948;2022-12-18T08:22:40;102589.28;;;4.10;100.00
45275;BME280;31019;43.780;25.948;2022-12-18T08:25:08;102587.84;;;4.40;100.00
45275;BME280;31019;43.780;25.948;2022-12-18T08:27:36;102590.22;;;4.77;100.00
45275;BME280;31019;43.780;25.948;2022-12-18T08:30:04;102601.22;;;4.71;100.00
45275;BME280;31019;43.780;25.948;2022-12-18T08:32:31;102593.97;;;5.18;100.00
45275;BME280;31019;43.780;25.948;2022-12-18T08:34:58;102597.06;;;4.57;100.00
45275;BME280;31019;43.780;25.948;2022-12-18T08:37:25;102595.75;;;4.51;100.00
45275;BME280;31019;43.780;25.948;2022-12-18T08:39:51;102597.44;;;4.64;100.00
45275;BME280;31019;43.780;25.948;2022-12-18T08:42:18;102604.38;;;4.42;100.00
45275;BME280;31019;43.780;25.948;2022-12-18T08:45:04;102612.75;;;4.36;100.00
45275;BME280;31019;43.780;25.948;2022-12-18T08:47:31;102617.03;;;4.71;100.00
45275;BME280;31019;43.780;25.948;2022-12-18T08:50:13;102610.19;;;4.79;100.00
45275;BME280;31019;43.780;25.948;2022-12-18T08:52:40;102604.34;;;4.31;100.00
45275;BME280;31019;43.780;25.948;2022-12-18T08:55:08;102607.22;;;4.28;100.00
45275;BME280;31019;43.780;25.948;2022-12-18T08:57:35;102596.97;;;4.36;100.00
45275;BME280;31019;43.780;25.948;2022-12-18T09:00:02;102601.06;;;5.06;100.00
45275;BME280;31019;43.780;25.948;2022-12-18T09:02:29;102598.34;;;4.85;100.00
45275;BME280;31019;43.780;25.948;2022-12-18T09:04:56;102615.84;;;4.52;100.00
45275;BME280;31019;43.780;25.948;2022-12-18T09:07:24;102608.50;;;5.01;100.00
45275;BME280;31019;43.780;25.948;2022-12-18T09:12:52;102606.59;;;4.13;100.00
45275;BME280;31019;43.780;25.948;2022-12-18T09:15:21;102612.75;;;4.36;100.00
45275;BME280;31019;43.780;25.948;2022-12-18T09:17:48;102618.81;;;4.48;100.00
45275;BME280;31019;43.780;25.948;2022-12-18T09:20:15;102613.97;;;5.09;100.00
45275;BME280;31019;43.780;25.948;2022-12-18T09:22:42;102618.00;;;4.58;100.00
45275;BME280;31019;43.780;25.948;2022-12-18T09:25:09;102609.75;;;4.52;100.00
45275;BME280;31019;43.780;25.948;2022-12-18T09:27:36;102614.59;;;5.01;100.00
45275;BME280;31019;43.780;25.948;2022-12-18T09:30:05;102611.63;;;4.83;100.00
45275;BME280;31019;43.780;25.948;2022-12-18T09:32:32;102615.94;;;4.62;100.00
45275;BME280;31019;43.780;25.948;2022-12-18T09:34:59;102615.38;;;4.58;100.00
45275;BME280;31019;43.780;25.948;2022-12-18T09:37:26;102613.75;;;5.01;100.00
45275;BME280;31019;43.780;25.948;2022-12-18T09:39:53;102609.03;;;4.50;100.00
45275;BME280;31019;43.780;25.948;2022-12-18T09:42:21;102607.81;;;4.88;100.00
45275;BME280;31019;43.780;25.948;2022-12-18T09:44:50;102606.97;;;4.87;100.00
45275;BME280;31019;43.780;25.948;2022-12-18T09:47:23;102600.91;;;5.19;100.00
45275;BME280;31019;43.780;25.948;2022-12-18T09:49:53;102591.78;;;4.34;100.00
45275;BME280;31019;43.780;25.948;2022-12-18T09:52:24;102605.34;;;5.07;100.00
45275;BME280;31019;43.780;25.948;2022-12-18T09:54:55;102597.72;;;5.36;100.00
45275;BME280;31019;43.780;25.948;2022-12-18T09:57:23;102596.13;;;5.13;100.00
45275;BME280;31019;43.780;25.948;2022-12-18T09:59:55;102610.19;;;5.34;100.00
45275;BME280;31019;43.780;25.948;2022-12-18T10:02:25;102610.69;;;5.28;100.00
45275;BME280;31019;43.780;25.948;2022-12-18T10:05:03;102610.94;;;5.57;100.00
45275;BME280;31019;43.780;25.948;2022-12-18T10:07:40;102608.13;;;5.70;100.00
45275;BME280;31019;43.780;25.948;2022-12-18T10:10:17;102611.78;;;5.25;100.00
45275;BME280;31019;43.780;25.948;2022-12-18T10:12:55;102613.06;;;4.65;100.00
45275;BME280;31019;43.780;25.948;2022-12-18T10:15:27;102608.06;;;4.62;100.00
45275;BME280;31019;43.780;25.948;2022-12-18T10:18:02;102618.81;;;4.59;100.00
45275;BME280;31019;43.780;25.948;2022-12-18T10:20:38;102621.94;;;4.53;100.00
45275;BME280;31019;43.780;25.948;2022-12-18T10:23:13;102624.44;;;4.88;100.00
45275;BME280;31019;43.780;25.948;2022-12-18T10:25:51;102623.94;;;4.94;100.00
45275;BME280;31019;43.780;25.948;2022-12-18T10:28:20;102632.56;;;4.96;100.00
45275;BME280;31019;43.780;25.948;2022-12-18T10:30:47;102624.69;;;4.18;100.00
45275;BME280;31019;43.780;25.948;2022-12-18T10:35:57;102637.63;;;4.54;100.00
45275;BME280;31019;43.780;25.948;2022-12-18T10:38:26;102630.81;;;4.63;100.00
45275;BME280;31019;43.780;25.948;2022-12-18T10:40:55;102631.63;;;4.52;100.00
45275;BME280;31019;43.780;25.948;2022-12-18T10:43:25;102637.50;;;4.56;100.00
45275;BME280;31019;43.780;25.948;2022-12-18T10:46:01;102643.59;;;4.56;100.00
45275;BME280;31019;43.780;25.948;2022-12-18T10:48:30;102646.94;;;4.47;100.00
45275;BME280;31019;43.780;25.948;2022-12-18T10:50:59;102642.28;;;4.51;100.00
45275;BME280;31019;43.780;25.948;2022-12-18T10:53:28;102652.53;;;4.20;100.00
45275;BME280;31019;43.780;25.948;2022-12-18T10:56:02;102653.84;;;4.26;100.00
45275;BME280;31019;43.780;25.948;2022-12-18T10:58:31;102663.56;;;4.36;100.00
45275;BME280;31019;43.780;25.948;2022-12-18T11:01:03;102670.59;;;4.25;100.00
45275;BME280;31019;43.780;25.948;2022-12-18T11:03:33;102658.88;;;4.29;100.00
45275;BME280;31019;43.780;25.948;2022-12-18T11:06:05;102664.53;;;4.58;100.00
45275;BME280;31019;43.780;25.948;2022-12-18T11:08:32;102659.88;;;4.39;100.00
45275;BME280;31019;43.780;25.948;2022-12-18T11:10:59;102662.22;;;4.31;100.00
45275;BME280;31019;43.780;25.948;2022-12-18T11:13:28;102660.59;;;4.52;100.00
45275;BME280;31019;43.780;25.948;2022-12-18T11:15:55;102660.47;;;4.43;100.00
45275;BME280;31019;43.780;25.948;2022-12-18T11:18:27;102668.47;;;4.75;100.00
45275;BME280;31019;43.780;25.948;2022-12-18T11:20:56;102665.50;;;4.57;100.00
45275;BME280;31019;43.780;25.948;2022-12-18T11:23:26;102672.53;;;4.56;100.00
45275;BME280;31019;43.780;25.948;2022-12-18T11:25:58;102670.78;;;4.57;100.00
45275;BME280;31019;43.780;25.948;2022-12-18T11:28:28;102665.34;;;4.25;100.00
45275;BME280;31019;43.780;25.948;2022-12-18T11:31:21;102676.00;;;4.34;100.00
45275;BME280;31019;43.780;25.948;2022-12-18T11:34:01;102672.31;;;4.71;100.00
45275;BME280;31019;43.780;25.948;2022-12-18T11:36:34;102673.84;;;4.62;100.00
45275;BME280;31019;43.780;25.948;2022-12-18T11:39:11;102682.25;;;4.67;100.00
45275;BME280;31019;43.780;25.948;2022-12-18T11:41:46;102668.34;;;4.43;100.00
45275;BME280;31019;43.780;25.948;2022-12-18T11:44:36;102673.88;;;4.51;100.00
45275;BME280;31019;43.780;25.948;2022-12-18T11:47:13;102666.56;;;4.43;100.00
45275;BME280;31019;43.780;25.948;2022-12-18T11:49:42;102675.03;;;4.47;100.00
45275;BME280;31019;43.780;25.948;2022-12-18T11:52:16;102667.53;;;4.65;100.00
45275;BME280;31019;43.780;25.948;2022-12-18T11:54:46;102677.31;;;4.63;100.00
45275;BME280;31019;43.780;25.948;2022-12-18T11:57:20;102685.31;;;4.39;100.00
45275;BME280;31019;43.780;25.948;2022-12-18T11:59:56;102688.91;;;4.38;100.00
45275;BME280;31019;43.780;25.948;2022-12-18T12:02:42;102687.63;;;4.66;100.00
45275;BME280;31019;43.780;25.948;2022-12-18T12:05:20;102680.69;;;4.76;100.00
45275;BME280;31019;43.780;25.948;2022-12-18T12:07:55;102688.00;;;4.72;100.00
45275;BME280;31019;43.780;25.948;2022-12-18T12:10:35;102689.88;;;4.48;100.00
45275;BME280;31019;43.780;25.948;2022-12-18T12:13:16;102689.78;;;4.83;100.00
45275;BME280;31019;43.780;25.948;2022-12-18T12:15:58;102680.22;;;4.93;100.00
45275;BME280;31019;43.780;25.948;2022-12-18T12:18:35;102686.91;;;4.52;100.00
45275;BME280;31019;43.780;25.948;2022-12-18T12:21:07;102688.81;;;4.62;100.00
45275;BME280;31019;43.780;25.948;2022-12-18T12:23:41;102690.03;;;4.57;100.00
45275;BME280;31019;43.780;25.948;2022-12-18T12:26:18;102677.09;;;4.54;100.00
45275;BME280;31019;43.780;25.948;2022-12-18T12:29:13;102691.94;;;4.55;100.00
45275;BME280;31019;43.780;25.948;2022-12-18T12:31:54;102693.38;;;4.48;100.00
45275;BME280;31019;43.780;25.948;2022-12-18T12:34:29;102685.94;;;4.42;100.00
45275;BME280;31019;43.780;25.948;2022-12-18T12:37:08;102691.22;;;4.65;100.00
45275;BME280;31019;43.780;25.948;2022-12-18T12:39:40;102689.97;;;4.35;100.00
45275;BME280;31019;43.780;25.948;2022-12-18T12:42:17;102689.03;;;4.36;100.00
45275;BME280;31019;43.780;25.948;2022-12-18T12:45:06;102695.75;;;4.51;100.00
45275;BME280;31019;43.780;25.948;2022-12-18T12:47:42;102688.84;;;4.73;100.00
45275;BME280;31019;43.780;25.948;2022-12-18T12:50:13;102697.44;;;4.52;100.00
45275;BME280;31019;43.780;25.948;2022-12-18T12:52:44;102691.19;;;4.42;100.00
45275;BME280;31019;43.780;25.948;2022-12-18T12:55:27;102695.59;;;4.42;100.00
45275;BME280;31019;43.780;25.948;2022-12-18T12:57:59;102695.75;;;4.51;100.00
45275;BME280;31019;43.780;25.948;2022-12-18T13:00:34;102706.78;;;4.68;100.00
45275;BME280;31019;43.780;25.948;2022-12-18T13:03:08;102713.47;;;4.72;100.00